Time;durP1;ratioP1;P1;durP2;ratioP2;P2;SDS_P1;SDS_P2;PMS_P1;PMS_P2;Temp;Humidity;BMP_temperature;BMP_pressure;BME280_temperature;BME280_humidity;BME280_pressure;Samples;Min_cycle;Max_cycle;Signal;HPM_P1;HPM_P2
2022/07/02 00:01:17;;;;;;;;;;;;;;;19.46;80.21;95413.88;5136944;27;1029;-48
2022/07/02 00:03:49;;;;;;;;;;;;;;;19.43;80.39;95409.72;5137025;27;1079;-47
2022/07/02 00:06:15;;;;;;;;;;;;;;;19.41;80.27;95403.66;5136799;27;1991;-47
2022/07/02 00:08:42;;;;;;;;;;;;;;;19.42;80.03;95402.59;5136826;27;987;-48
2022/07/02 00:11:09;;;;;;;;;;;;;;;19.58;79.49;95398.63;5136864;27;1051;-48
2022/07/02 00:13:35;;;;;;;;;;;;;;;19.49;79.76;95403.44;5136513;27;1076;-47
2022/07/02 00:16:01;;;;;;;;;;;;;;;19.33;80.39;95400.31;5136672;27;1040;-48
2022/07/02 00:18:28;;;;;;;;;;;;;;;19.48;79.64;95411.78;5136415;27;1059;-47
2022/07/02 00:20:55;;;;;;;;;;;;;;;19.49;80.03;95408.88;5136585;27;1091;-48
2022/07/02 00:23:21;;;;;;;;;;;;;;;19.52;79.90;95413.06;5136631;27;1035;-48
2022/07/02 00:25:52;;;;;;;;;;;;;;;19.49;80.15;95408.88;5136429;27;1909;-48
2022/07/02 00:28:19;;;;;;;;;;;;;;;19.41;80.18;95410.97;5136461;27;1012;-48
2022/07/02 00:30:46;;;;;;;;;;;;;;;19.41;80.14;95410.97;5136264;27;961;-48
2022/07/02 00:33:13;;;;;;;;;;;;;;;19.36;80.38;95417.00;5136538;27;1035;-48
2022/07/02 00:35:40;;;;;;;;;;;;;;;19.22;80.39;95424.31;5136186;27;1095;-47
2022/07/02 00:38:06;;;;;;;;;;;;;;;19.09;81.09;95419.72;5136163;27;1048;-48
2022/07/02 00:40:32;;;;;;;;;;;;;;;19.10;80.88;95425.97;5136036;27;1106;-48
2022/07/02 00:42:59;;;;;;;;;;;;;;;19.20;79.99;95412.84;5146348;27;1204;-48
2022/07/02 00:45:26;;;;;;;;;;;;;;;19.49;78.76;95421.59;5156513;27;1992;-48
2022/07/02 00:47:54;;;;;;;;;;;;;;;19.20;80.23;95423.69;5156382;27;1043;-48
2022/07/02 00:50:20;;;;;;;;;;;;;;;19.14;80.43;95423.69;5156702;27;1035;-47
2022/07/02 00:52:46;;;;;;;;;;;;;;;19.12;80.59;95426.59;5156690;27;1055;-48
2022/07/02 00:55:12;;;;;;;;;;;;;;;19.08;80.54;95434.34;5156569;27;1050;-48
2022/07/02 00:57:38;;;;;;;;;;;;;;;19.04;80.89;95430.34;5156692;27;1031;-47
2022/07/02 01:00:05;;;;;;;;;;;;;;;18.78;81.15;95424.84;5156322;27;1088;-48
2022/07/02 01:02:31;;;;;;;;;;;;;;;18.75;81.58;95422.56;5138157;27;956;-48
2022/07/02 01:04:58;;;;;;;;;;;;;;;18.88;81.35;95430.75;5156186;27;2004;-48
2022/07/02 01:07:24;;;;;;;;;;;;;;;18.95;80.93;95414.50;5156295;27;1024;-47
2022/07/02 01:12:38;;;;;;;;;;;;;;;18.80;81.58;95420.06;5156163;27;1237;-47
2022/07/02 01:15:04;;;;;;;;;;;;;;;18.58;82.27;95409.41;5156272;27;953;-47
2022/07/02 01:17:30;;;;;;;;;;;;;;;18.46;83.44;95403.75;5156221;27;1040;-48
2022/07/02 01:19:56;;;;;;;;;;;;;;;18.57;82.50;95404.19;5156147;27;1007;-48
2022/07/02 01:22:24;;;;;;;;;;;;;;;18.58;82.56;95404.00;5156021;27;921;-48
2022/07/02 01:24:51;;;;;;;;;;;;;;;18.62;82.75;95397.13;5155813;27;1901;-48
2022/07/02 01:27:18;;;;;;;;;;;;;;;18.72;82.17;95396.72;5155929;27;1031;-48
2022/07/02 01:29:44;;;;;;;;;;;;;;;18.53;82.42;95398.34;5155782;27;1040;-48
2022/07/02 01:32:11;;;;;;;;;;;;;;;18.46;82.95;95402.94;5156017;27;945;-48
2022/07/02 01:34:41;;;;;;;;;;;;;;;18.67;82.57;95402.75;5155725;27;1030;-48
2022/07/02 01:37:08;;;;;;;;;;;;;;;18.74;81.83;95400.06;5155876;27;1024;-48
2022/07/02 01:39:35;;;;;;;;;;;;;;;18.50;82.47;95398.78;5155718;27;1019;-48
2022/07/02 01:42:01;;;;;;;;;;;;;;;18.21;83.76;95399.91;5153457;27;1204;-48
2022/07/02 01:44:27;;;;;;;;;;;;;;;18.31;83.30;95405.78;5134831;27;1237;-48
2022/07/02 01:46:54;;;;;;;;;;;;;;;18.58;82.33;95408.59;5134912;27;1906;-48
2022/07/02 01:49:20;;;;;;;;;;;;;;;18.58;82.33;95412.13;5135224;27;1059;-48
2022/07/02 01:51:46;;;;;;;;;;;;;;;18.47;82.18;95408.13;5134683;27;1020;-47
2022/07/02 01:54:13;;;;;;;;;;;;;;;18.37;82.56;95415.81;5116538;27;1056;-48
2022/07/02 01:56:39;;;;;;;;;;;;;;;18.22;82.91;95413.25;5134485;27;1056;-47
2022/07/02 01:59:05;;;;;;;;;;;;;;;18.10;83.32;95414.88;5133884;27;977;-47
2022/07/02 02:01:32;;;;;;;;;;;;;;;18.22;82.97;95423.25;5134446;27;1032;-48
2022/07/02 02:03:58;;;;;;;;;;;;;;;18.32;82.62;95415.56;5134768;27;1220;-48
2022/07/02 02:06:24;;;;;;;;;;;;;;;18.41;82.26;95416.22;5134022;27;1905;-48
2022/07/02 02:08:50;;;;;;;;;;;;;;;18.20;82.96;95419.91;5134609;27;991;-47
2022/07/02 02:11:16;;;;;;;;;;;;;;;18.04;83.84;95412.94;5134712;27;1043;-48
2022/07/02 02:13:42;;;;;;;;;;;;;;;18.09;84.24;95414.03;5134331;27;1103;-47
2022/07/02 02:16:08;;;;;;;;;;;;;;;18.24;84.03;95410.34;5134209;27;1107;-48
2022/07/02 02:18:34;;;;;;;;;;;;;;;18.54;82.46;95403.56;5134589;27;1219;-48
2022/07/02 02:21:00;;;;;;;;;;;;;;;18.56;82.11;95407.94;5134098;27;1052;-47
2022/07/02 02:23:26;;;;;;;;;;;;;;;18.42;82.66;95415.19;5134507;27;965;-48
2022/07/02 02:25:52;;;;;;;;;;;;;;;18.37;82.88;95410.38;5134042;27;1982;-48
2022/07/02 02:28:19;;;;;;;;;;;;;;;18.30;83.08;95421.19;5134503;27;1037;-48
2022/07/02 02:30:45;;;;;;;;;;;;;;;18.25;82.89;95423.69;5134315;27;1035;-48
2022/07/02 02:33:11;;;;;;;;;;;;;;;18.34;82.53;95429.72;5134299;27;1024;-48
2022/07/02 02:35:37;;;;;;;;;;;;;;;18.21;83.72;95435.09;5133903;27;1764;-48
2022/07/02 02:38:03;;;;;;;;;;;;;;;18.20;83.55;95431.56;5134123;28;1869;-48
2022/07/02 02:40:29;;;;;;;;;;;;;;;18.15;82.87;95428.63;5134066;28;964;-48
2022/07/02 02:42:55;;;;;;;;;;;;;;;17.98;83.13;95421.88;5143841;27;1160;-48
2022/07/02 02:45:21;;;;;;;;;;;;;;;17.86;83.24;95425.16;5154862;27;1984;-48
2022/07/02 02:47:47;;;;;;;;;;;;;;;17.85;83.90;95428.06;5154789;27;1050;-48
2022/07/02 02:50:13;;;;;;;;;;;;;;;17.94;83.19;95421.44;5154639;27;1083;-48
2022/07/02 02:52:39;;;;;;;;;;;;;;;17.96;83.45;95419.38;5154623;27;1019;-48
2022/07/02 02:55:05;;;;;;;;;;;;;;;17.98;82.89;95422.72;5154609;27;988;-48
2022/07/02 02:57:32;;;;;;;;;;;;;;;17.92;84.36;95431.63;5154805;27;1022;-48
2022/07/02 02:59:58;;;;;;;;;;;;;;;17.85;84.43;95434.31;5154893;27;975;-48
2022/07/02 03:02:24;;;;;;;;;;;;;;;17.87;84.24;95436.78;5154548;27;988;-48
2022/07/02 03:04:50;;;;;;;;;;;;;;;17.97;84.17;95439.16;5154530;27;1906;-48
2022/07/02 03:07:16;;;;;;;;;;;;;;;18.08;83.91;95450.25;5154462;27;1031;-48
2022/07/02 03:09:42;;;;;;;;;;;;;;;18.00;82.74;95441.44;5154736;27;936;-48
2022/07/02 03:12:09;;;;;;;;;;;;;;;17.95;82.97;95452.88;5158540;27;1261;-48
2022/07/02 03:14:35;;;;;;;;;;;;;;;18.11;82.78;95454.41;5158901;27;1133;-48
2022/07/02 03:17:01;;;;;;;;;;;;;;;18.04;83.47;95458.94;5158494;27;1039;-48
2022/07/02 03:19:27;;;;;;;;;;;;;;;17.98;83.57;95462.47;5158536;27;1024;-48
2022/07/02 03:21:53;;;;;;;;;;;;;;;18.02;83.36;95459.16;5158336;27;979;-47
2022/07/02 03:24:19;;;;;;;;;;;;;;;18.07;83.13;95451.25;5158345;27;1063;-48
2022/07/02 03:26:45;;;;;;;;;;;;;;;18.12;82.91;95456.09;5158166;27;1989;-48
2022/07/02 03:29:11;;;;;;;;;;;;;;;18.12;83.06;95456.91;5158463;27;1052;-48
2022/07/02 03:31:37;;;;;;;;;;;;;;;18.14;82.16;95456.72;5158056;27;1111;-48
2022/07/02 03:34:03;;;;;;;;;;;;;;;17.94;83.31;95453.91;5158054;27;1024;-47
2022/07/02 03:36:29;;;;;;;;;;;;;;;17.73;85.06;95462.91;5158076;27;1067;-48
2022/07/02 03:38:55;;;;;;;;;;;;;;;17.74;85.29;95460.00;5158090;27;980;-48
2022/07/02 03:41:21;;;;;;;;;;;;;;;18.20;83.02;95458.63;5157960;27;1020;-48
2022/07/02 03:43:50;;;;;;;;;;;;;;;18.39;83.09;95462.44;5140887;27;1212;-48
2022/07/02 03:46:16;;;;;;;;;;;;;;;18.56;82.58;95462.94;5137223;27;1993;-48
2022/07/02 03:48:43;;;;;;;;;;;;;;;18.68;82.65;95463.16;5137141;27;1012;-48
2022/07/02 03:51:09;;;;;;;;;;;;;;;18.88;82.26;95457.84;5137152;27;1177;-48
2022/07/02 03:53:35;;;;;;;;;;;;;;;18.85;82.66;95453.66;5136936;27;1028;-48
2022/07/02 03:56:02;;;;;;;;;;;;;;;18.86;82.14;95449.09;5137236;27;1048;-48
2022/07/02 03:58:29;;;;;;;;;;;;;;;18.81;82.59;95455.09;5136793;27;1858;-48
2022/07/02 04:00:55;;;;;;;;;;;;;;;18.72;83.19;95459.00;5136927;27;1016;-48
2022/07/02 04:03:21;;;;;;;;;;;;;;;18.62;84.19;95467.53;5136792;27;1040;-47
2022/07/02 04:05:47;;;;;;;;;;;;;;;18.86;83.49;95462.63;5136660;27;1979;-47
2022/07/02 04:08:13;;;;;;;;;;;;;;;19.20;82.46;95464.34;5136515;27;1024;-51
2022/07/02 04:10:39;;;;;;;;;;;;;;;19.36;82.84;95460.38;5136729;27;1092;-48
2022/07/02 04:13:05;;;;;;;;;;;;;;;19.47;82.19;95459.75;5136388;27;1860;-48
2022/07/02 04:15:31;;;;;;;;;;;;;;;19.73;82.46;95468.13;5136883;27;1051;-48
2022/07/02 04:17:57;;;;;;;;;;;;;;;19.86;81.82;95476.22;5136871;27;1024;-48
2022/07/02 04:20:23;;;;;;;;;;;;;;;20.09;79.93;95484.75;5136618;27;1056;-48
2022/07/02 04:22:49;;;;;;;;;;;;;;;20.23;79.60;95484.72;5135235;27;1020;-48
2022/07/02 04:25:15;;;;;;;;;;;;;;;20.26;79.18;95481.56;5136618;27;1984;-47
2022/07/02 04:27:41;;;;;;;;;;;;;;;20.33;79.94;95493.25;5136420;27;964;-48
2022/07/02 04:30:09;;;;;;;;;;;;;;;20.36;80.03;95487.41;5136340;27;1095;-48
2022/07/02 04:32:35;;;;;;;;;;;;;;;20.40;80.70;95488.63;5136321;27;1019;-48
2022/07/02 04:35:01;;;;;;;;;;;;;;;20.49;79.77;95483.81;5136147;27;1072;-48
2022/07/02 04:37:27;;;;;;;;;;;;;;;20.51;77.05;95486.28;5136127;27;1173;-48
2022/07/02 04:39:53;;;;;;;;;;;;;;;20.54;77.20;95488.59;5136215;27;1098;-48
2022/07/02 04:42:19;;;;;;;;;;;;;;;20.65;77.08;95491.50;5140531;27;1183;-48
2022/07/02 04:44:45;;;;;;;;;;;;;;;20.71;77.05;95484.34;5156702;27;1008;-48
2022/07/02 04:47:11;;;;;;;;;;;;;;;20.81;76.10;95486.59;5156821;27;1902;-48
2022/07/02 04:49:37;;;;;;;;;;;;;;;20.86;76.13;95484.91;5156630;27;1099;-48
2022/07/02 04:52:04;;;;;;;;;;;;;;;21.00;75.42;95491.13;5156632;27;953;-48
2022/07/02 04:54:30;;;;;;;;;;;;;;;21.14;73.73;95494.59;5156481;27;1016;-48
2022/07/02 04:56:56;;;;;;;;;;;;;;;21.24;74.47;95492.19;5156850;27;1019;-48
2022/07/02 04:59:22;;;;;;;;;;;;;;;21.40;74.88;95484.59;5156312;27;1082;-48
2022/07/02 05:01:48;;;;;;;;;;;;;;;21.44;73.83;95491.28;5156627;27;1047;-48
2022/07/02 05:04:14;;;;;;;;;;;;;;;21.50;74.64;95487.66;5156522;27;1180;-48
2022/07/02 05:06:40;;;;;;;;;;;;;;;21.65;75.53;95484.63;5156284;27;1901;-48
2022/07/02 05:09:06;;;;;;;;;;;;;;;21.85;74.10;95489.88;5156016;27;948;-48
2022/07/02 05:11:32;;;;;;;;;;;;;;;21.91;74.37;95490.88;5156287;27;1163;-48
2022/07/02 05:13:58;;;;;;;;;;;;;;;22.03;73.84;95487.19;5155965;27;1097;-47
2022/07/02 05:16:24;;;;;;;;;;;;;;;22.14;74.11;95484.78;5156268;27;972;-48
2022/07/02 05:18:50;;;;;;;;;;;;;;;22.24;73.64;95493.28;5156051;27;964;-48
2022/07/02 05:21:16;;;;;;;;;;;;;;;22.42;72.05;95493.31;5156014;27;1003;-48
2022/07/02 05:23:42;;;;;;;;;;;;;;;22.50;73.44;95496.78;5155887;27;983;-48
2022/07/02 05:26:08;;;;;;;;;;;;;;;22.57;72.02;95495.63;5155846;27;1987;-48
2022/07/02 05:28:34;;;;;;;;;;;;;;;22.68;72.89;95493.22;5155971;27;1032;-48
2022/07/02 05:31:00;;;;;;;;;;;;;;;22.80;73.43;95494.97;5155975;27;1007;-48
2022/07/02 05:33:26;;;;;;;;;;;;;;;22.87;72.87;95492.13;5155585;27;987;-48
2022/07/02 05:35:52;;;;;;;;;;;;;;;22.93;73.63;95487.66;5155644;27;1020;-48
2022/07/02 05:38:19;;;;;;;;;;;;;;;22.91;72.33;95487.06;5155469;27;980;-48
2022/07/02 05:40:46;;;;;;;;;;;;;;;23.03;73.31;95490.72;5155923;27;1840;-48
2022/07/02 05:43:12;;;;;;;;;;;;;;;23.09;73.65;95503.41;5143244;27;1176;-48
2022/07/02 05:45:38;;;;;;;;;;;;;;;23.35;72.60;95493.16;5134982;27;1902;-48
2022/07/02 05:48:04;;;;;;;;;;;;;;;23.59;71.87;95500.34;5134756;27;1032;-48
2022/07/02 05:50:30;;;;;;;;;;;;;;;23.68;72.23;95497.28;5134765;27;1846;-48
2022/07/02 05:52:56;;;;;;;;;;;;;;;23.71;71.34;95502.25;5134706;27;973;-47
2022/07/02 05:55:22;;;;;;;;;;;;;;;23.82;70.34;95501.47;5134426;27;1119;-48
2022/07/02 05:57:48;;;;;;;;;;;;;;;23.94;71.16;95501.47;5134835;27;986;-48
2022/07/02 06:00:14;;;;;;;;;;;;;;;23.99;70.52;95506.25;5134523;27;1063;-48
2022/07/02 06:02:40;;;;;;;;;;;;;;;24.20;70.32;95502.91;5134904;27;957;-48
2022/07/02 06:07:51;;;;;;;;;;;;;;;24.21;70.25;95507.31;5134872;27;1035;-48
2022/07/02 06:10:18;;;;;;;;;;;;;;;24.26;70.08;95507.41;5134467;27;953;-48
2022/07/02 06:12:48;;;;;;;;;;;;;;;24.29;70.87;95504.22;5134340;27;1229;-48
2022/07/02 06:15:14;;;;;;;;;;;;;;;24.32;70.12;95511.09;5134336;27;1026;-48
2022/07/02 06:17:40;;;;;;;;;;;;;;;24.45;69.22;95512.75;5134449;27;961;-49
2022/07/02 06:20:07;;;;;;;;;;;;;;;24.51;69.40;95509.06;5134082;27;1028;-48
2022/07/02 06:22:33;;;;;;;;;;;;;;;24.53;69.55;95516.00;5134596;27;950;-48
2022/07/02 06:24:59;;;;;;;;;;;;;;;24.62;68.57;95513.69;5134281;27;1902;-48
2022/07/02 06:27:25;;;;;;;;;;;;;;;24.70;68.43;95513.34;5134509;27;1072;-48
2022/07/02 06:29:51;;;;;;;;;;;;;;;24.87;69.31;95507.97;5134216;27;1044;-48
2022/07/02 06:32:18;;;;;;;;;;;;;;;24.82;65.86;95509.75;5134275;27;1094;-48
2022/07/02 06:34:44;;;;;;;;;;;;;;;24.94;65.43;95514.09;5133755;27;1119;-48
2022/07/02 06:37:10;;;;;;;;;;;;;;;25.04;66.84;95521.72;5134393;27;1033;-48
2022/07/02 06:39:36;;;;;;;;;;;;;;;25.09;66.94;95518.22;5134169;28;1019;-47
2022/07/02 06:42:22;;;;;;;;;;;;;;;25.14;67.24;95512.88;5136196;27;1216;-48
2022/07/02 06:44:52;;;;;;;;;;;;;;;25.47;65.35;95514.03;5155106;27;1079;-48
2022/07/02 06:47:19;;;;;;;;;;;;;;;25.49;65.28;95509.97;5158909;27;1979;-48
2022/07/02 06:49:45;;;;;;;;;;;;;;;25.56;65.02;95515.31;5158953;27;1115;-48
2022/07/02 06:52:11;;;;;;;;;;;;;;;25.60;64.98;95511.00;5159185;27;999;-48
2022/07/02 06:54:38;;;;;;;;;;;;;;;25.66;64.35;95512.75;5158876;27;1827;-48
2022/07/02 06:57:05;;;;;;;;;;;;;;;25.73;65.18;95509.84;5158979;27;1030;-48
2022/07/02 06:59:31;;;;;;;;;;;;;;;25.82;63.79;95513.00;5158755;27;1028;-48
2022/07/02 07:01:57;;;;;;;;;;;;;;;25.90;65.24;95507.13;5158886;27;992;-48
2022/07/02 07:04:23;;;;;;;;;;;;;;;26.03;63.80;95514.22;5158330;27;1016;-48
2022/07/02 07:07:00;;;;;;;;;;;;;;;26.17;63.11;95507.28;5158858;27;1913;-48
2022/07/02 07:09:27;;;;;;;;;;;;;;;26.35;62.56;95506.22;5158563;27;1012;-48
2022/07/02 07:11:53;;;;;;;;;;;;;;;26.49;62.76;95503.94;5158794;27;1058;-48
2022/07/02 07:14:20;;;;;;;;;;;;;;;26.63;62.91;95510.72;5158168;27;1218;-48
2022/07/02 07:16:46;;;;;;;;;;;;;;;26.71;61.68;95511.38;5158885;27;987;-48
2022/07/02 07:19:12;;;;;;;;;;;;;;;26.71;60.06;95511.38;5158668;27;1012;-48
2022/07/02 07:21:39;;;;;;;;;;;;;;;26.91;58.38;95503.41;5158529;27;1042;-48
2022/07/02 07:24:06;;;;;;;;;;;;;;;27.00;57.67;95506.53;5158515;27;1000;-48
2022/07/02 07:26:32;;;;;;;;;;;;;;;27.07;56.86;95508.00;5158250;27;1917;-48
2022/07/02 07:28:58;;;;;;;;;;;;;;;27.19;56.19;95507.84;5158313;27;964;-48
2022/07/02 07:31:24;;;;;;;;;;;;;;;27.32;58.62;95512.16;5158576;27;1039;-48
2022/07/02 07:33:51;;;;;;;;;;;;;;;27.32;57.47;95516.78;5158503;27;1015;-48
2022/07/02 07:36:18;;;;;;;;;;;;;;;27.36;57.10;95505.03;5157728;27;1011;-48
2022/07/02 07:38:44;;;;;;;;;;;;;;;27.45;56.69;95503.50;5158165;27;1020;-48
2022/07/02 07:41:10;;;;;;;;;;;;;;;27.54;57.15;95503.84;5157950;27;1040;-48
2022/07/02 07:43:36;;;;;;;;;;;;;;;27.67;56.60;95499.84;5142426;27;1212;-48
2022/07/02 07:46:02;;;;;;;;;;;;;;;27.84;57.78;95495.06;5137211;27;1917;-48
2022/07/02 07:48:28;;;;;;;;;;;;;;;27.98;57.49;95506.47;5137527;27;1019;-48
2022/07/02 07:50:55;;;;;;;;;;;;;;;27.98;56.97;95501.00;5137243;27;961;-48
2022/07/02 07:53:21;;;;;;;;;;;;;;;28.11;55.38;95501.63;5137238;27;1035;-48
2022/07/02 07:55:48;;;;;;;;;;;;;;;28.06;55.67;95496.94;5136903;27;1024;-48
2022/07/02 07:58:14;;;;;;;;;;;;;;;28.22;54.43;95490.44;5136954;27;957;-48
2022/07/02 08:00:40;;;;;;;;;;;;;;;28.47;55.97;95499.09;5137130;27;1055;-48
2022/07/02 08:03:06;;;;;;;;;;;;;;;28.50;52.84;95502.16;5137159;27;979;-48
2022/07/02 08:05:32;;;;;;;;;;;;;;;28.57;54.37;95491.78;5136733;27;1909;-48
2022/07/02 08:07:59;;;;;;;;;;;;;;;28.71;52.78;95491.31;5137084;27;975;-48
2022/07/02 08:10:25;;;;;;;;;;;;;;;28.76;54.30;95489.41;5136775;27;1010;-48
2022/07/02 08:12:51;;;;;;;;;;;;;;;28.93;53.60;95483.72;5136664;27;1969;-48
2022/07/02 08:15:17;;;;;;;;;;;;;;;29.07;52.74;95483.19;5136892;27;995;-48
2022/07/02 08:17:43;;;;;;;;;;;;;;;29.01;51.74;95482.34;5136829;27;1836;-48
2022/07/02 08:20:10;;;;;;;;;;;;;;;29.08;54.09;95498.59;5136544;27;1130;-48
2022/07/02 08:22:36;;;;;;;;;;;;;;;29.11;52.67;95489.81;5136434;27;1099;-48
2022/07/02 08:25:03;;;;;;;;;;;;;;;29.16;51.30;95489.88;5136429;27;2032;-48
2022/07/02 08:27:29;;;;;;;;;;;;;;;29.21;49.90;95489.88;5136403;27;1027;-48
2022/07/02 08:29:55;;;;;;;;;;;;;;;29.30;50.21;95493.75;5136738;27;999;-48
2022/07/02 08:32:22;;;;;;;;;;;;;;;29.49;50.36;95494.06;5136423;27;967;-48
2022/07/02 08:34:48;;;;;;;;;;;;;;;29.68;49.37;95494.38;5136415;27;1039;-48
2022/07/02 08:37:15;;;;;;;;;;;;;;;29.76;49.89;95491.09;5136229;27;979;-48
2022/07/02 08:39:41;;;;;;;;;;;;;;;29.87;50.24;95491.94;5136436;27;967;-48
2022/07/02 08:42:09;;;;;;;;;;;;;;;29.86;46.98;95487.53;5138649;27;1164;-48
2022/07/02 08:44:35;;;;;;;;;;;;;;;29.71;46.83;95492.97;5157069;27;1123;-48
2022/07/02 08:47:07;;;;;;;;;;;;;;;29.77;49.89;95487.25;5156784;27;1901;-48
2022/07/02 08:49:33;;;;;;;;;;;;;;;29.93;47.55;95498.28;5157103;27;957;-48
2022/07/02 08:52:04;;;;;;;;;;;;;;;29.93;47.22;95490.81;5156757;27;1075;-48
2022/07/02 08:54:33;;;;;;;;;;;;;;;30.07;49.48;95491.13;5156879;27;1076;-48
2022/07/02 08:57:00;;;;;;;;;;;;;;;30.23;50.16;95489.16;5156467;27;1094;-48
2022/07/02 08:59:29;;;;;;;;;;;;;;;30.35;49.25;95491.66;5156856;27;956;-48
2022/07/02 09:01:55;;;;;;;;;;;;;;;30.45;47.09;95488.06;5156592;27;976;-48
2022/07/02 09:04:22;;;;;;;;;;;;;;;30.56;46.75;95492.44;5156229;27;1035;-48
2022/07/02 09:06:49;;;;;;;;;;;;;;;30.60;49.54;95492.72;5156379;27;2043;-48
2022/07/02 09:09:15;;;;;;;;;;;;;;;30.73;47.95;95492.13;5155829;27;1204;-48
2022/07/02 09:11:42;;;;;;;;;;;;;;;30.77;47.66;95497.91;5156176;27;1086;-48
2022/07/02 09:14:08;;;;;;;;;;;;;;;30.71;48.04;95494.34;5156179;27;1885;-48
2022/07/02 09:16:34;;;;;;;;;;;;;;;30.79;48.92;95490.16;5156139;27;1013;-48
2022/07/02 09:19:00;;;;;;;;;;;;;;;30.90;47.95;95483.53;5156320;27;984;-48
2022/07/02 09:21:26;;;;;;;;;;;;;;;30.94;47.00;95484.63;5156181;27;980;-48
2022/07/02 09:23:52;;;;;;;;;;;;;;;30.95;47.59;95483.53;5156145;27;1047;-48
2022/07/02 09:26:18;;;;;;;;;;;;;;;31.01;45.99;95485.16;5156273;27;1990;-48
2022/07/02 09:28:54;;;;;;;;;;;;;;;31.08;47.76;95474.63;5155915;27;1192;-48
2022/07/02 09:31:20;;;;;;;;;;;;;;;31.16;47.72;95472.41;5156184;27;988;-48
2022/07/02 09:33:46;;;;;;;;;;;;;;;31.19;48.17;95472.66;5155946;27;964;-48
2022/07/02 09:36:13;;;;;;;;;;;;;;;31.25;45.86;95477.03;5155724;27;1046;-48
2022/07/02 09:38:43;;;;;;;;;;;;;;;31.24;46.43;95480.06;5155652;27;1032;-48
2022/07/02 09:41:14;;;;;;;;;;;;;;;31.28;45.44;95470.09;5156288;27;981;-48
2022/07/02 09:43:40;;;;;;;;;;;;;;;31.35;47.98;95475.31;5139692;27;1190;-48
2022/07/02 09:46:17;;;;;;;;;;;;;;;31.34;46.93;95468.94;5135004;27;1993;-48
2022/07/02 09:48:44;;;;;;;;;;;;;;;31.36;43.86;95477.81;5134995;27;969;-48
2022/07/02 09:51:10;;;;;;;;;;;;;;;31.39;45.86;95468.94;5134854;27;1036;-48
2022/07/02 09:53:46;;;;;;;;;;;;;;;31.45;45.09;95472.50;5134994;27;1047;-48
2022/07/02 09:56:12;;;;;;;;;;;;;;;31.47;44.52;95464.78;5134956;27;971;-48
2022/07/02 09:58:38;;;;;;;;;;;;;;;31.48;43.17;95461.72;5134495;27;1090;-48
2022/07/02 10:01:04;;;;;;;;;;;;;;;31.56;44.42;95457.53;5134667;27;1114;-49
2022/07/02 10:03:30;;;;;;;;;;;;;;;31.59;42.42;95454.19;5134623;27;1011;-48
2022/07/02 10:05:56;;;;;;;;;;;;;;;31.63;43.94;95449.75;5134359;27;1901;-48
2022/07/02 10:08:22;;;;;;;;;;;;;;;31.67;43.69;95450.00;5134305;27;1854;-48
2022/07/02 10:10:49;;;;;;;;;;;;;;;31.62;44.68;95439.78;5134809;27;981;-48
2022/07/02 10:13:16;;;;;;;;;;;;;;;31.60;42.05;95442.03;5134288;27;1642;-48
2022/07/02 10:15:51;;;;;;;;;;;;;;;31.57;42.99;95442.63;5134623;27;979;-48
2022/07/02 10:18:18;;;;;;;;;;;;;;;31.53;42.54;95441.53;5134174;27;1040;-48
2022/07/02 10:20:44;;;;;;;;;;;;;;;31.67;43.40;95442.53;5133624;27;1035;-48
2022/07/02 10:23:12;;;;;;;;;;;;;;;31.86;41.92;95436.31;5134403;27;960;-49
2022/07/02 10:25:39;;;;;;;;;;;;;;;32.03;41.14;95424.84;5134280;27;1910;-48
2022/07/02 10:28:05;;;;;;;;;;;;;;;32.12;40.56;95422.25;5134271;27;1127;-48
2022/07/02 10:30:32;;;;;;;;;;;;;;;32.12;42.76;95427.78;5134428;27;1064;-48
2022/07/02 10:32:58;;;;;;;;;;;;;;;32.16;40.78;95426.13;5115880;28;1048;-48
2022/07/02 10:35:24;;;;;;;;;;;;;;;31.89;43.44;95424.66;5134298;27;1055;-48
2022/07/02 10:37:57;;;;;;;;;;;;;;;31.62;41.97;95423.22;5099306;27;1436;-48
2022/07/02 10:40:24;;;;;;;;;;;;;;;31.60;43.78;95430.16;5134405;28;965;-48
2022/07/02 10:42:52;;;;;;;;;;;;;;;31.62;43.37;95423.22;5143234;27;1153;-49
2022/07/02 10:45:22;;;;;;;;;;;;;;;31.77;43.34;95408.44;5154769;27;1922;-48
2022/07/02 10:47:52;;;;;;;;;;;;;;;31.91;42.23;95406.66;5136367;27;1096;-49
2022/07/02 10:50:19;;;;;;;;;;;;;;;32.00;40.99;95414.31;5154847;27;1102;-48
2022/07/02 10:52:51;;;;;;;;;;;;;;;32.09;40.44;95407.09;5155042;27;1035;-49
2022/07/02 10:55:24;;;;;;;;;;;;;;;32.20;41.01;95410.59;5154678;27;1091;-48
2022/07/02 10:57:57;;;;;;;;;;;;;;;32.26;40.46;95407.47;5136416;27;2601;-48
2022/07/02 11:00:31;;;;;;;;;;;;;;;32.25;37.00;95400.28;5154548;27;1027;-49
2022/07/02 11:02:58;;;;;;;;;;;;;;;32.21;38.78;95399.19;5154862;27;1083;-49
2022/07/02 11:05:24;;;;;;;;;;;;;;;32.20;39.33;95397.56;5154386;27;1910;-48
2022/07/02 11:07:51;;;;;;;;;;;;;;;32.26;38.97;95396.38;5154759;27;1075;-49
2022/07/02 11:10:24;;;;;;;;;;;;;;;32.33;38.71;95393.28;5154429;27;1071;-48
2022/07/02 11:13:00;;;;;;;;;;;;;;;32.34;36.38;95400.47;5154549;27;1276;-49
2022/07/02 11:15:34;;;;;;;;;;;;;;;32.41;38.70;95395.41;5136161;27;1087;-48
2022/07/02 11:18:02;;;;;;;;;;;;;;;32.42;37.21;95385.16;5154775;27;995;-48
2022/07/02 11:20:28;;;;;;;;;;;;;;;32.38;37.66;95381.34;5154514;27;1036;-49
2022/07/02 11:22:58;;;;;;;;;;;;;;;32.41;37.41;95383.53;5136348;27;1459;-48
2022/07/02 11:25:24;;;;;;;;;;;;;;;32.49;39.08;95382.88;5135873;27;1905;-48
2022/07/02 11:27:57;;;;;;;;;;;;;;;32.57;38.73;95384.19;5154558;27;1201;-48
2022/07/02 11:30:24;;;;;;;;;;;;;;;32.60;37.57;95384.41;5119121;27;1470;-49
2022/07/02 11:32:50;;;;;;;;;;;;;;;32.53;38.79;95391.41;5158248;27;1101;-48
2022/07/02 11:35:17;;;;;;;;;;;;;;;32.60;37.59;95383.59;5157871;27;1024;-48
2022/07/02 11:37:44;;;;;;;;;;;;;;;32.68;37.89;95369.91;5158211;27;977;-48
2022/07/02 11:40:23;;;;;;;;;;;;;;;32.77;38.43;95378.41;5158270;27;1061;-48
2022/07/02 11:42:49;;;;;;;;;;;;;;;32.85;39.68;95380.50;5149930;27;1171;-49
2022/07/02 11:45:15;;;;;;;;;;;;;;;32.66;38.60;95372.16;5118896;27;1905;-48
2022/07/02 11:47:42;;;;;;;;;;;;;;;32.32;38.92;95383.34;5137556;27;1091;-48
2022/07/02 11:50:08;;;;;;;;;;;;;;;32.00;38.00;95381.16;5137517;27;1210;-48
2022/07/02 11:52:34;;;;;;;;;;;;;;;31.78;38.51;95379.72;5137345;27;1003;-48
2022/07/02 11:55:02;;;;;;;;;;;;;;;31.62;37.52;95379.00;5137030;27;1012;-48
2022/07/02 11:57:31;;;;;;;;;;;;;;;31.76;37.35;95367.28;5137261;27;1988;-48
2022/07/02 11:59:57;;;;;;;;;;;;;;;32.01;38.63;95364.28;5136984;27;1095;-48
2022/07/02 12:02:24;;;;;;;;;;;;;;;32.09;40.10;95355.34;5137026;27;1033;-49
2022/07/02 12:04:50;;;;;;;;;;;;;;;32.18;38.33;95361.09;5118488;27;984;-48
2022/07/02 12:07:16;;;;;;;;;;;;;;;31.95;39.20;95356.31;5136876;27;1987;-49
2022/07/02 12:09:42;;;;;;;;;;;;;;;31.58;40.66;95355.81;5137045;27;1045;-50
2022/07/02 12:12:08;;;;;;;;;;;;;;;31.36;41.45;95356.25;5136813;27;1250;-49
2022/07/02 12:14:34;;;;;;;;;;;;;;;31.14;42.18;95345.66;5137232;27;1002;-48
2022/07/02 12:17:00;;;;;;;;;;;;;;;31.00;43.03;95347.38;5136736;27;1036;-49
2022/07/02 12:19:33;;;;;;;;;;;;;;;30.88;43.48;95354.03;5136637;27;1106;-49
2022/07/02 12:21:59;;;;;;;;;;;;;;;30.80;43.83;95349.13;5136970;27;1052;-49
2022/07/02 12:24:34;;;;;;;;;;;;;;;30.77;44.62;95351.63;5136769;27;1009;-49
2022/07/02 12:27:02;;;;;;;;;;;;;;;30.75;46.43;95368.47;5136662;27;1982;-49
2022/07/02 12:32:15;;;;;;;;;;;;;;;30.64;46.60;95362.19;5136411;27;1016;-49
2022/07/02 12:34:45;;;;;;;;;;;;;;;30.68;45.81;95373.50;5136505;27;1033;-49
2022/07/02 12:37:25;;;;;;;;;;;;;;;30.54;48.67;95367.75;5136431;27;1027;-49
2022/07/02 12:39:57;;;;;;;;;;;;;;;30.50;48.62;95367.47;5136481;27;965;-49
2022/07/02 12:42:24;;;;;;;;;;;;;;;30.41;49.91;95366.44;5140501;27;1181;-49
2022/07/02 12:44:52;;;;;;;;;;;;;;;30.33;48.19;95355.97;5156753;27;1043;-49
2022/07/02 12:47:29;;;;;;;;;;;;;;;30.08;49.45;95354.09;5156597;27;1906;-49
2022/07/02 12:50:00;;;;;;;;;;;;;;;29.92;50.21;95356.88;5156882;27;1016;-49
2022/07/02 12:52:28;;;;;;;;;;;;;;;29.98;48.88;95361.28;5156613;27;1200;-49
2022/07/02 12:54:54;;;;;;;;;;;;;;;30.17;47.42;95375.28;5156921;27;961;-49
2022/07/02 12:57:21;;;;;;;;;;;;;;;30.31;47.63;95380.22;5156408;27;1039;-48
2022/07/02 12:59:48;;;;;;;;;;;;;;;30.46;45.76;95371.91;5156729;27;1024;-48
2022/07/02 13:02:43;;;;;;;;;;;;;;;30.54;47.68;95376.03;5156468;27;1036;-48
2022/07/02 13:05:09;;;;;;;;;;;;;;;30.51;50.52;95373.84;5134641;27;1348;-48
2022/07/02 13:07:35;;;;;;;;;;;;;;;30.48;50.70;95397.28;5156361;27;1969;-49